VTBS/BKK METAR and TAF weather

Enter ICAO airport designator
Station Type Date Time Source
VTBS METAR 2019/12/13 17:00 UTC NOAA

VTBS 131700Z 05008KT 9000 NSC 27/16 Q1015 NOSIG


Station Type Date Time Source
VTBS Decoded METAR 2019/12/13 17:00 UTC NOAA

Chon Buri, Thailand (VTBS) 13-22N 100-59E 2M
Dec 13, 2019 - 12:00 PM EST / 2019.12.13 1700 UTC
Wind: from the NE (050 degrees) at 9 MPH (8 KT):0
Visibility: 5 mile(s):0
Temperature: 80 F (27 C)
Dew Point: 60 F (16 C)
Relative Humidity: 50%
Pressure (altimeter): 29.97 in. Hg (1015 hPa)
ob: VTBS 131700Z 05008KT 9000 NSC 27/16 Q1015 NOSIG
cycle: 17

Station Type Date Time Source
VTBS TAF 2019/12/13 12:00 UTC NOAA

TAF VTBS 131100Z 1312/1418 06008KT 9000 NSC

Example: see airport list